createdAt,value
2022-08-17T00:00:49.398Z,10.85
2022-08-17T00:04:13.786Z,11.20
2022-08-17T00:07:38.296Z,10.38
2022-08-17T00:11:02.762Z,10.48
2022-08-17T00:14:24.697Z,10.57
2022-08-17T00:17:48.169Z,10.02
2022-08-17T00:21:12.249Z,10.02
2022-08-17T00:24:35.569Z,10.27
2022-08-17T00:27:59.022Z,10.05
2022-08-17T00:31:22.693Z,10.52
2022-08-17T00:34:44.382Z,10.82
2022-08-17T00:38:09.748Z,10.80
2022-08-17T00:41:31.769Z,10.93
2022-08-17T00:44:54.979Z,10.75
2022-08-17T00:48:29.159Z,11.35
2022-08-17T00:51:56.186Z,11.00
2022-08-17T00:55:18.866Z,10.90
2022-08-17T00:58:42.077Z,10.80
2022-08-17T01:02:07.245Z,11.07
2022-08-17T01:05:33.070Z,10.80
2022-08-17T01:08:57.273Z,10.73
2022-08-17T01:12:19.771Z,10.38
2022-08-17T01:15:47.481Z,10.73
2022-08-17T01:19:17.915Z,10.77
2022-08-17T01:22:41.296Z,11.10
2022-08-17T01:26:06.079Z,10.93
2022-08-17T01:29:30.797Z,10.95
2022-08-17T01:32:52.925Z,11.32
2022-08-17T01:36:14.676Z,11.68
2022-08-17T01:39:42.152Z,10.98
2022-08-17T01:43:09.526Z,11.48
2022-08-17T01:46:35.578Z,11.57
2022-08-17T01:49:57.211Z,10.80
2022-08-17T01:53:23.207Z,11.85
2022-08-17T01:56:49.414Z,11.32
2022-08-17T02:00:13.224Z,11.13
2022-08-17T02:03:37.087Z,11.45
2022-08-17T02:06:59.331Z,11.10
2022-08-17T02:10:22.362Z,11.27
2022-08-17T02:13:46.642Z,11.73
2022-08-17T02:17:08.474Z,11.20
2022-08-17T02:20:41.376Z,11.23
2022-08-17T02:24:05.719Z,11.68
2022-08-17T02:27:27.931Z,12.27
2022-08-17T02:31:01.669Z,11.38
2022-08-17T02:34:24.415Z,11.13
2022-08-17T02:37:46.379Z,11.27
2022-08-17T02:41:13.749Z,10.95
2022-08-17T02:44:39.862Z,10.70
2022-08-17T02:48:03.420Z,11.07
2022-08-17T02:51:25.534Z,11.45
2022-08-17T02:54:47.911Z,11.55
2022-08-17T02:58:12.196Z,11.60
2022-08-17T03:01:34.157Z,11.25
2022-08-17T03:04:57.332Z,12.15
2022-08-17T03:08:19.914Z,11.27
2022-08-17T03:11:41.671Z,11.63
2022-08-17T03:15:05.044Z,11.63
2022-08-17T03:18:28.002Z,11.32
2022-08-17T03:21:55.376Z,11.57
2022-08-17T03:25:19.668Z,11.77
2022-08-17T03:28:44.555Z,11.48
2022-08-17T03:32:12.645Z,12.52
2022-08-17T03:35:36.417Z,12.23
2022-08-17T03:38:59.226Z,11.65
2022-08-17T03:42:32.262Z,13.23
2022-08-17T03:46:33.992Z,12.18
2022-08-17T03:50:10.758Z,12.57
2022-08-17T03:54:01.042Z,11.43
2022-08-17T03:57:24.387Z,12.32
2022-08-17T04:00:46.518Z,12.55
2022-08-17T04:04:08.788Z,11.80
2022-08-17T04:07:31.897Z,12.05
2022-08-17T04:10:53.849Z,12.15
2022-08-17T04:14:17.141Z,12.30
2022-08-17T04:17:39.523Z,12.45
2022-08-17T04:21:01.782Z,12.05
2022-08-17T04:24:23.458Z,11.05
2022-08-17T04:27:45.374Z,11.50
2022-08-17T04:31:09.305Z,11.82
2022-08-17T04:34:31.460Z,11.40
2022-08-17T04:37:54.044Z,11.90
2022-08-17T04:41:34.635Z,11.32
2022-08-17T04:44:56.222Z,11.40
2022-08-17T04:48:19.762Z,12.25
2022-08-17T04:51:45.514Z,11.38
2022-08-17T04:55:17.503Z,11.88
2022-08-17T04:58:39.413Z,11.88
2022-08-17T05:02:00.974Z,12.05
2022-08-17T05:05:27.353Z,11.70
2022-08-17T05:08:48.986Z,12.57
2022-08-17T05:12:10.630Z,12.15
2022-08-17T05:15:36.048Z,12.48
2022-08-17T05:18:59.278Z,13.40
2022-08-17T05:22:22.642Z,13.00
2022-08-17T05:25:47.760Z,12.45
2022-08-17T05:29:09.376Z,13.73
2022-08-17T05:32:38.906Z,13.07
2022-08-17T05:36:02.543Z,13.63
2022-08-17T05:39:25.620Z,13.82
2022-08-17T05:42:48.259Z,13.25
2022-08-17T05:46:18.055Z,12.95
2022-08-17T05:49:40.133Z,14.75
2022-08-17T05:53:07.483Z,15.52
2022-08-17T05:56:50.413Z,16.08
2022-08-17T06:00:19.252Z,14.57
2022-08-17T06:03:50.518Z,13.73
2022-08-17T06:07:21.927Z,12.93
2022-08-17T06:10:48.837Z,13.60
2022-08-17T06:14:26.562Z,14.27
2022-08-17T06:17:48.274Z,13.93
2022-08-17T06:21:14.685Z,16.70
2022-08-17T06:24:40.161Z,14.65
2022-08-17T06:28:05.720Z,24.80
2022-08-17T06:31:34.251Z,26.20
2022-08-17T06:34:57.455Z,16.05
2022-08-17T06:38:37.655Z,14.75
2022-08-17T06:43:02.536Z,16.02
2022-08-17T06:45:59.894Z,14.95
2022-08-17T06:49:29.546Z,15.73
2022-08-17T06:52:56.210Z,15.20
2022-08-17T06:56:53.071Z,16.05
2022-08-17T07:00:16.655Z,24.63
2022-08-17T07:03:45.346Z,16.40
2022-08-17T07:07:25.696Z,18.00
2022-08-17T07:10:50.290Z,16.27
2022-08-17T07:14:29.176Z,15.15
2022-08-17T07:17:52.251Z,15.38
2022-08-17T07:21:26.497Z,16.30
2022-08-17T07:24:53.499Z,15.77
2022-08-17T07:28:22.919Z,16.13
2022-08-17T07:31:45.329Z,16.05
2022-08-17T07:35:17.258Z,16.60
2022-08-17T07:38:56.986Z,15.95
2022-08-17T07:42:20.588Z,16.48
2022-08-17T07:46:10.727Z,15.90
2022-08-17T07:49:37.118Z,16.33
2022-08-17T07:52:59.227Z,16.88
2022-08-17T07:56:41.027Z,15.60
2022-08-17T08:00:23.901Z,15.27
2022-08-17T08:03:53.711Z,15.02
2022-08-17T08:07:26.747Z,14.52
2022-08-17T08:11:00.079Z,12.13
2022-08-17T08:14:29.500Z,12.75
2022-08-17T08:17:55.427Z,12.15
2022-08-17T08:21:21.988Z,11.65
2022-08-17T08:24:57.292Z,11.75
2022-08-17T08:28:27.277Z,10.43
2022-08-17T08:31:58.010Z,9.63
2022-08-17T08:35:30.954Z,8.82
2022-08-17T08:39:01.156Z,8.38
2022-08-17T08:42:28.867Z,8.52
2022-08-17T08:45:57.243Z,7.38
2022-08-17T08:50:06.688Z,7.60
2022-08-17T08:53:40.571Z,7.10
2022-08-17T08:57:26.748Z,6.85
2022-08-17T09:00:55.838Z,6.57
2022-08-17T09:05:10.548Z,6.75
2022-08-17T09:08:34.914Z,5.97
2022-08-17T09:12:09.490Z,6.50
2022-08-17T09:15:37.722Z,6.57
2022-08-17T09:19:05.342Z,7.03
2022-08-17T09:22:34.122Z,7.35
2022-08-17T09:26:01.979Z,7.43
2022-08-17T09:29:26.363Z,7.70
2022-08-17T09:32:55.372Z,7.03
2022-08-17T09:36:21.730Z,6.80
2022-08-17T09:39:52.587Z,6.90
2022-08-17T09:43:28.867Z,7.32
2022-08-17T09:46:55.369Z,6.90
2022-08-17T09:51:03.709Z,6.72
2022-08-17T09:54:37.709Z,6.72
2022-08-17T09:58:12.016Z,6.22
2022-08-17T10:01:40.613Z,5.43
2022-08-17T10:05:07.647Z,5.22
2022-08-17T10:08:37.390Z,4.72
2022-08-17T10:12:17.774Z,5.18
2022-08-17T10:15:49.467Z,5.03
2022-08-17T10:19:17.165Z,5.32
2022-08-17T10:23:02.167Z,5.05
2022-08-17T10:26:28.143Z,5.07
2022-08-17T10:30:13.838Z,6.00
2022-08-17T10:33:49.841Z,5.85
2022-08-17T10:37:32.061Z,5.60
2022-08-17T10:40:58.986Z,5.70
2022-08-17T10:44:37.943Z,5.72
2022-08-17T10:48:22.841Z,5.90
2022-08-17T10:51:47.940Z,6.60
2022-08-17T10:55:18.922Z,7.13
2022-08-17T10:58:49.591Z,7.15
2022-08-17T11:02:18.915Z,6.57
2022-08-17T11:05:58.856Z,6.53
2022-08-17T11:09:36.377Z,7.82
2022-08-17T11:13:05.713Z,6.88
2022-08-17T11:16:49.755Z,6.43
2022-08-17T11:20:29.085Z,6.30
2022-08-17T11:24:14.906Z,6.60
2022-08-17T11:27:37.750Z,6.32
2022-08-17T11:31:09.452Z,6.95
2022-08-17T11:34:32.926Z,6.65
2022-08-17T11:38:09.710Z,7.03
2022-08-17T11:41:49.946Z,6.65
2022-08-17T11:45:33.062Z,6.43
2022-08-17T11:49:27.284Z,6.55
2022-08-17T11:52:50.998Z,6.40
2022-08-17T11:56:32.114Z,6.30
2022-08-17T12:00:07.518Z,6.30
2022-08-17T12:03:55.246Z,6.97
2022-08-17T12:07:21.794Z,6.30
2022-08-17T12:10:55.356Z,6.97
2022-08-17T12:14:35.498Z,6.40
2022-08-17T12:18:04.431Z,6.30
2022-08-17T12:21:45.132Z,6.05
2022-08-17T12:25:14.907Z,6.15
2022-08-17T12:28:39.758Z,5.65
2022-08-17T12:32:03.495Z,6.15
2022-08-17T12:35:29.908Z,6.18
2022-08-17T12:39:00.118Z,6.32
2022-08-17T12:42:39.433Z,6.03
2022-08-17T12:46:15.395Z,7.00
2022-08-17T12:49:39.413Z,6.47
2022-08-17T12:53:02.692Z,6.75
2022-08-17T12:56:24.213Z,6.72
2022-08-17T12:59:53.504Z,6.45
2022-08-17T13:03:19.199Z,6.70
2022-08-17T13:06:51.561Z,6.55
2022-08-17T13:10:32.135Z,6.00
2022-08-17T13:13:56.941Z,6.25
2022-08-17T13:17:27.528Z,6.15
2022-08-17T13:20:54.292Z,6.53
2022-08-17T13:24:19.925Z,6.40
2022-08-17T13:27:44.116Z,5.93
2022-08-17T13:31:39.443Z,5.90
2022-08-17T13:35:39.464Z,6.15
2022-08-17T13:39:13.498Z,6.30
2022-08-17T13:42:53.164Z,6.72
2022-08-17T13:46:21.630Z,6.80
2022-08-17T13:49:48.803Z,6.70
2022-08-17T13:53:22.698Z,6.43
2022-08-17T13:56:55.031Z,6.22
2022-08-17T14:00:21.281Z,6.38
2022-08-17T14:03:44.358Z,5.95
2022-08-17T14:07:28.957Z,6.85
2022-08-17T14:10:59.350Z,7.03
2022-08-17T14:14:23.241Z,6.55
2022-08-17T14:17:45.193Z,6.32
2022-08-17T14:21:08.468Z,6.75
2022-08-17T14:24:32.790Z,6.53
2022-08-17T14:27:57.035Z,6.60
2022-08-17T14:31:20.634Z,7.15
2022-08-17T14:34:42.836Z,6.60
2022-08-17T14:38:05.885Z,5.97
2022-08-17T14:41:27.430Z,6.20
2022-08-17T14:44:51.011Z,6.03
2022-08-17T14:48:12.746Z,6.00
2022-08-17T14:51:34.921Z,5.75
2022-08-17T14:55:06.567Z,5.18
2022-08-17T14:58:29.613Z,5.25
2022-08-17T15:01:52.848Z,5.60
2022-08-17T15:05:16.497Z,5.63
2022-08-17T15:08:38.491Z,5.10
2022-08-17T15:12:02.307Z,5.60
2022-08-17T15:15:24.307Z,5.38
2022-08-17T15:18:47.422Z,5.53
2022-08-17T15:22:27.100Z,6.00
2022-08-17T15:25:52.606Z,5.63
2022-08-17T15:29:14.690Z,5.70
2022-08-17T15:32:39.374Z,5.50
2022-08-17T15:36:06.456Z,5.82
2022-08-17T15:39:28.218Z,5.70
2022-08-17T15:42:51.075Z,5.53
2022-08-17T15:46:17.288Z,5.80
2022-08-17T15:49:41.126Z,6.05
2022-08-17T15:53:04.987Z,5.97
2022-08-17T15:56:27.635Z,5.82
2022-08-17T15:59:52.106Z,5.50
2022-08-17T16:04:01.622Z,6.53
2022-08-17T16:07:02.335Z,6.43
2022-08-17T16:10:35.040Z,5.95
2022-08-17T16:13:57.709Z,6.15
2022-08-17T16:17:38.866Z,6.90
2022-08-17T16:21:23.541Z,6.07
2022-08-17T16:24:57.040Z,6.40
2022-08-17T16:28:21.804Z,5.80
2022-08-17T16:31:43.760Z,6.38
2022-08-17T16:35:06.802Z,6.15
2022-08-17T16:38:28.556Z,5.85
2022-08-17T16:41:50.600Z,5.45
2022-08-17T16:45:17.114Z,5.93
2022-08-17T16:48:39.047Z,5.80
2022-08-17T16:52:03.235Z,6.50
2022-08-17T16:55:25.129Z,5.82
2022-08-17T16:58:47.718Z,5.93
2022-08-17T17:02:16.268Z,5.93
2022-08-17T17:05:51.457Z,6.30
2022-08-17T17:09:24.888Z,5.93
2022-08-17T17:13:03.860Z,6.38
2022-08-17T17:16:35.166Z,6.78
2022-08-17T17:20:04.025Z,6.57
2022-08-17T17:23:51.550Z,6.35
2022-08-17T17:27:31.826Z,6.90
2022-08-17T17:31:02.408Z,6.82
2022-08-17T17:34:26.778Z,6.95
2022-08-17T17:37:52.340Z,7.43
2022-08-17T17:41:26.436Z,7.50
2022-08-17T17:44:50.821Z,8.32
2022-08-17T17:48:12.918Z,7.32
2022-08-17T17:52:07.158Z,7.82
2022-08-17T17:55:36.071Z,7.47
2022-08-17T17:59:03.258Z,7.57
2022-08-17T18:02:52.114Z,7.82
2022-08-17T18:06:26.750Z,7.30
2022-08-17T18:10:02.704Z,7.57
2022-08-17T18:13:32.467Z,7.65
2022-08-17T18:16:57.906Z,7.65
2022-08-17T18:20:32.418Z,7.38
2022-08-17T18:24:08.500Z,8.30
2022-08-17T18:27:34.623Z,7.47
2022-08-17T18:31:11.673Z,7.70
2022-08-17T18:34:46.998Z,8.15
2022-08-17T18:38:21.740Z,8.10
2022-08-17T18:41:44.769Z,8.50
2022-08-17T18:45:06.965Z,8.10
2022-08-17T18:48:36.098Z,8.95
2022-08-17T18:52:11.968Z,7.80
2022-08-17T18:55:34.106Z,8.27
2022-08-17T18:59:22.823Z,9.70
2022-08-17T19:02:57.432Z,9.52
2022-08-17T19:06:27.939Z,9.77
2022-08-17T19:09:53.849Z,18.33
2022-08-17T19:13:23.901Z,10.63
2022-08-17T19:16:52.037Z,9.25
2022-08-17T19:20:18.694Z,9.55
2022-08-17T19:23:53.350Z,9.30
2022-08-17T19:27:22.000Z,10.40
2022-08-17T19:30:45.239Z,9.48
2022-08-17T19:34:07.105Z,9.82
2022-08-17T19:37:37.710Z,9.52
2022-08-17T19:41:08.441Z,9.10
2022-08-17T19:44:43.249Z,9.35
2022-08-17T19:48:14.783Z,9.57
2022-08-17T19:51:45.172Z,8.82
2022-08-17T19:55:20.579Z,9.60
2022-08-17T19:58:53.578Z,10.23
2022-08-17T20:02:36.702Z,9.32
2022-08-17T20:06:12.726Z,9.73
2022-08-17T20:09:39.035Z,9.60
2022-08-17T20:13:06.377Z,9.75
2022-08-17T20:16:29.834Z,10.55
2022-08-17T20:19:55.416Z,10.55
2022-08-17T20:23:31.858Z,10.65
2022-08-17T20:26:59.665Z,10.48
2022-08-17T20:30:38.435Z,10.52
2022-08-17T20:34:40.731Z,10.40
2022-08-17T20:38:05.152Z,10.80
2022-08-17T20:41:29.535Z,10.95
2022-08-17T20:44:54.411Z,10.63
2022-08-17T20:48:36.898Z,10.60
2022-08-17T20:52:08.237Z,11.20
2022-08-17T20:55:54.739Z,10.40
2022-08-17T20:59:50.075Z,11.40
2022-08-17T21:03:50.234Z,10.52
2022-08-17T21:07:30.073Z,10.52
2022-08-17T21:10:54.706Z,10.80
2022-08-17T21:14:29.568Z,10.68
2022-08-17T21:18:06.514Z,10.65
2022-08-17T21:21:41.543Z,10.40
2022-08-17T21:25:19.559Z,10.07
2022-08-17T21:29:00.946Z,10.20
2022-08-17T21:32:31.208Z,10.90
2022-08-17T21:35:58.542Z,11.13
2022-08-17T21:39:24.278Z,10.50
2022-08-17T21:42:59.039Z,10.73
2022-08-17T21:46:28.846Z,10.15
2022-08-17T21:49:51.655Z,10.50
2022-08-17T21:53:25.398Z,10.65
2022-08-17T21:56:49.674Z,10.45
2022-08-17T22:00:24.055Z,11.00
2022-08-17T22:03:48.159Z,10.68
2022-08-17T22:07:12.418Z,10.68
2022-08-17T22:10:38.460Z,10.98
2022-08-17T22:14:05.403Z,10.88
2022-08-17T22:17:35.831Z,10.77
2022-08-17T22:21:00.040Z,11.07
2022-08-17T22:24:31.068Z,10.85
2022-08-17T22:27:56.559Z,10.75
2022-08-17T22:31:20.849Z,10.65
2022-08-17T22:34:44.035Z,10.95
2022-08-17T22:38:33.431Z,10.93
2022-08-17T22:42:00.378Z,11.45
2022-08-17T22:45:24.274Z,11.02
2022-08-17T22:48:50.196Z,11.18
2022-08-17T22:52:32.699Z,11.32
2022-08-17T22:56:14.908Z,10.65
2022-08-17T22:59:47.811Z,11.23
2022-08-17T23:03:17.710Z,11.38
2022-08-17T23:06:42.258Z,11.07
2022-08-17T23:10:06.999Z,10.95
2022-08-17T23:13:33.400Z,11.30
2022-08-17T23:16:54.998Z,11.38
2022-08-17T23:20:17.703Z,11.82
2022-08-17T23:23:40.279Z,11.15
2022-08-17T23:27:07.670Z,11.70
2022-08-17T23:30:30.444Z,12.05
2022-08-17T23:33:52.418Z,11.63
2022-08-17T23:37:16.769Z,12.05
2022-08-17T23:40:39.560Z,12.35
2022-08-17T23:44:05.450Z,12.52
2022-08-17T23:47:28.570Z,12.05
2022-08-17T23:50:51.693Z,12.02
2022-08-17T23:54:20.994Z,11.95
2022-08-17T23:57:43.166Z,11.80
